Flight Track Log - Related Links

Times and Time Zones

All times are in EDT time to prevent confusion due to time zone crossing. See the SWA1775 flight status page for this flight to view local times or setup timezone preferences in your user account.

Time Position Orientation Groundspeed Altitude Reporting Facility
EDT Latitude Longitude Course Direction KTS MPH feet Rate Location/Type
11:21AM 36.2190 -86.6480 18° North 240 276 4,000  Level FlightAware
11:21AM 36.2410 -86.6570 342° North 264 304 4,600 2,438 Climbing FlightAware
11:21AM 36.2500 -86.6710 309° West 264 304 5,300 3,931 Climbing FlightAware
11:22AM 36.2560 -86.7000 284° West 263 303 6,500 3,360 Climbing FlightAware
11:22AM 36.2560 -86.7060 270° West 262 302 6,700 3,000 Climbing FlightAware
11:22AM 36.2570 -86.7310 273° West 266 306 7,500 2,516 Climbing FlightAware
11:22AM 36.2570 -86.7500 270° West 268 308 8,000 1,935 Climbing FlightAware
11:23AM 36.2580 -86.7750 273° West 280 322 8,500 2,328 Climbing FlightAware
11:24AM 36.2600 -86.8650 272° West 307 353 10,600 1,915 Climbing FlightAware
11:24AM 36.2630 -86.9470 273° West 352 405 11,500 1,875 Climbing FlightAware
11:25AM 36.2660 -87.0240 273° West 356 410 13,100 2,486 Climbing FlightAware
11:25AM 36.2670 -87.0900 271° West 364 419 14,400 2,175 Climbing FlightAware
11:26AM 36.2700 -87.1920 272° West 379 436 16,000 2,071 Climbing FlightAware
11:27AM 36.2730 -87.2690 273° West 384 442 17,300 2,108 Climbing FlightAware
11:27AM 36.2750 -87.3540 272° West 388 447 18,600 1,917 Climbing FlightAware
11:28AM 36.2770 -87.4270 272° West 396 456 19,600 1,658 Climbing FlightAware
11:29AM 36.2790 -87.5280 271° West 408 470 20,700 1,622 Climbing FlightAware
11:29AM 36.2810 -87.6040 272° West 413 475 21,600 1,588 Climbing FlightAware
11:30AM 36.2830 -87.6890 272° West 418 481 22,500 1,500 Climbing FlightAware
11:30AM 36.2850 -87.7650 272° West 423 487 23,300 1,417 Climbing FlightAware
11:31AM 36.2870 -87.8630 271° West 429 494 24,200 1,297 Climbing FlightAware
11:32AM 36.2880 -87.9430 271° West 433 498 24,900 811 Climbing FlightAware
11:32AM 36.2900 -88.0230 272° West 433 498 25,200 234 Climbing FlightAware
11:33AM 36.2910 -88.1020 271° West 433 498 25,200  Level FlightAware
11:33AM 36.2920 -88.1780 271° West 433 498 25,200  Level FlightAware
11:34AM 36.2930 -88.2540 271° West 433 498 25,200  Level FlightAware
11:35AM 36.2940 -88.3320 271° West 433 498 25,200 2,824 Level FlightAware
11:35AM 36.2990 -88.5270 272° West 447 514 29,200 2,857 Climbing FlightAware
11:36AM 36.3000 -88.6060 271° West 447 514 29,200  Level FlightAware
11:37AM 36.3010 -88.6840 271° West 447 514 29,200  Level FlightAware
11:37AM 36.3020 -88.7630 271° West 447 514 29,200  Level FlightAware
11:38AM 36.3040 -88.8700 271° West 447 514 29,200  Level FlightAware
11:39AM 36.3050 -88.9480 271° West 447 514 29,200 2,632 Level FlightAware
11:41AM 36.3090 -89.2910 271° West 411 473 36,000 2,684 Climbing FlightAware
11:41AM 36.3100 -89.3780 271° West 411 473 36,000  Level FlightAware
11:42AM 36.3110 -89.4640 271° West 410 472 36,000  Level FlightAware
11:42AM 36.3110 -89.4970 270° West 410 472 36,000  Level FlightAware
11:43AM 36.3120 -89.6530 271° West 411 473 36,000  Level FlightAware
11:44AM 36.3130 -89.7400 271° West 412 474 36,000  Level FlightAware
11:44AM 36.3130 -89.8160 270° West 415 478 36,000  Level FlightAware
11:46AM 36.3130 -89.9710 270° West 416 479 36,000  Level FlightAware
11:46AM 36.3140 -90.0700 271° West 418 481 36,000  Level FlightAware
11:47AM 36.3140 -90.1470 270° West 418 481 36,000  Level FlightAware
11:47AM 36.3140 -90.2000 270° West 418 481 36,000  Level FlightAware
11:48AM 36.3150 -90.3020 271° West 419 482 36,000  Level FlightAware
11:48AM 36.3150 -90.3720 270° West 419 482 36,000  Level FlightAware
11:49AM 36.3150 -90.4520 270° West 419 482 36,000  Level FlightAware
11:49AM 36.3150 -90.5470 270° West 419 482 36,000  Level FlightAware
11:50AM 36.3150 -90.6560 270° West 420 483 36,000  Level FlightAware
11:51AM 36.3140 -90.7440 269° West 420 483 36,000  Level FlightAware
11:51AM 36.3140 -90.8250 270° West 420 483 36,000  Level FlightAware
11:52AM 36.3140 -90.9000 270° West 420 483 36,000  Level FlightAware
11:53AM 36.3130 -90.9970 269° West 421 484 36,000  Level FlightAware
11:53AM 36.3130 -91.0830 270° West 421 484 36,000  Level FlightAware
11:54AM 36.3130 -91.1620 270° West 421 484 36,000  Level FlightAware
11:54AM 36.3120 -91.2440 269° West 422 486 36,000  Level FlightAware
11:55AM 36.3120 -91.3250 270° West 423 487 36,000  Level FlightAware
11:55AM 36.3110 -91.4170 269° West 423 487 36,000  Level FlightAware
11:56AM 36.3100 -91.5000 269° West 423 487 36,000  Level FlightAware
11:57AM 36.3090 -91.6060 269° West 424 488 36,000  Level FlightAware
11:57AM 36.3080 -91.6980 269° West 424 488 36,000  Level FlightAware
11:58AM 36.3070 -91.7860 269° West 423 487 36,000  Level FlightAware
11:59AM 36.3060 -91.8770 269° West 424 488 36,000  Level FlightAware
11:59AM 36.3050 -91.9540 269° West 424 488 36,000  Level FlightAware
11:59AM 36.3050 -92.0030 270° West 425 489 36,000  Level FlightAware
12:01PM 36.3030 -92.1540 269° West 426 490 36,000  Level FlightAware
12:01PM 36.3010 -92.2420 268° West 427 491 36,000  Level FlightAware
12:02PM 36.3000 -92.3190 269° West 428 493 36,000  Level FlightAware
12:02PM 36.2990 -92.3840 269° West 430 495 36,000  Level FlightAware
12:02PM 36.2980 -92.4340 269° West 431 496 36,000  Level FlightAware
12:03PM 36.2960 -92.5490 269° West 434 499 36,000  Level FlightAware
12:04PM 36.2940 -92.6670 269° West 436 502 36,000  Level FlightAware
12:05PM 36.2930 -92.7580 269° West 438 504 36,000  Level FlightAware
12:05PM 36.2910 -92.8380 268° West 438 504 36,000  Level FlightAware
12:06PM 36.2890 -92.9540 269° West 440 506 36,000  Level FlightAware
12:06PM 36.2870 -93.0330 268° West 438 504 36,000  Level FlightAware
12:07PM 36.2850 -93.1280 269° West 433 498 36,000  Level FlightAware
12:08PM 36.2830 -93.2080 268° West 434 499 36,000  Level FlightAware
12:08PM 36.2810 -93.2900 268° West 433 498 36,000  Level FlightAware
12:09PM 36.2790 -93.3850 269° West 434 499 36,000  Level FlightAware
12:09PM 36.2770 -93.4660 268° West 434 499 36,000  Level FlightAware
12:10PM 36.2750 -93.5540 268° West 433 498 36,000  Level FlightAware
12:10PM 36.2730 -93.6290 268° West 432 497 36,000  Level FlightAware
12:11PM 36.2700 -93.7420 268° West 434 499 36,000  Level FlightAware
12:12PM 36.2670 -93.8550 268° West 434 499 36,000  Level FlightAware
12:13PM 36.2640 -93.9390 267° West 436 502 36,000  Level FlightAware
12:13PM 36.2620 -94.0200 268° West 438 504 36,000  Level FlightAware
12:14PM 36.2590 -94.1070 268° West 440 506 36,000  Level FlightAware
12:14PM 36.2560 -94.2020 268° West 442 509 36,000  Level FlightAware
12:15PM 36.2540 -94.2870 268° West 445 512 36,000  Level FlightAware
12:15PM 36.2510 -94.3750 268° West 446 513 36,000  Level FlightAware
12:16PM 36.2480 -94.4650 268° West 448 516 36,000  Level FlightAware
12:17PM 36.2450 -94.5580 268° West 451 519 36,000  Level FlightAware
12:17PM 36.2420 -94.6460 268° West 454 522 36,000  Level FlightAware
12:18PM 36.2380 -94.7400 267° West 455 524 36,000  Level FlightAware
12:18PM 36.2350 -94.8340 268° West 457 526 36,000  Level FlightAware
12:19PM 36.2320 -94.9180 267° West 456 525 36,000  Level FlightAware
12:19PM 36.2280 -95.0050 267° West 454 522 36,000  Level FlightAware
12:21PM 36.2230 -95.1560 268° West 456 525 36,000  Level FlightAware
12:21PM 36.2180 -95.2750 267° West 457 526 36,000  Level FlightAware
12:22PM 36.2140 -95.3630 267° West 458 527 36,000  Level FlightAware
12:22PM 36.2110 -95.4510 268° West 459 528 36,000  Level FlightAware
12:23PM 36.2080 -95.5240 267° West 460 529 36,000  Level FlightAware
12:24PM 36.2020 -95.6660 267° West 460 529 36,000  Level FlightAware
12:24PM 36.1970 -95.7700 267° West 459 528 36,000  Level FlightAware
12:25PM 36.1850 -95.8580 260° West 460 529 36,000  Level FlightAware
12:26PM 36.1680 -95.9580 258° West 459 528 36,000  Level FlightAware
12:26PM 36.1510 -96.0600 258° West 457 526 36,000  Level FlightAware
12:27PM 36.1390 -96.1310 258° West 456 525 36,000  Level FlightAware
12:27PM 36.1210 -96.2340 258° West 454 522 36,000  Level FlightAware
12:28PM 36.1050 -96.3250 258° West 454 522 36,000  Level FlightAware
12:29PM 36.0910 -96.4110 259° West 453 521 36,000  Level FlightAware
12:29PM 36.0750 -96.5040 258° West 452 520 36,000  Level FlightAware
12:30PM 36.0600 -96.5870 257° West 452 520 36,000  Level FlightAware
12:30PM 36.0440 -96.6800 258° West 453 521 36,000  Level FlightAware
12:31PM 36.0290 -96.7650 258° West 452 520 36,000  Level FlightAware
12:31PM 36.0140 -96.8520 258° West 452 520 36,000  Level FlightAware
12:32PM 35.9970 -96.9480 258° West 451 519 36,000  Level FlightAware
12:33PM 35.9830 -97.0250 257° West 450 518 36,000  Level FlightAware
12:33PM 35.9670 -97.1180 258° West 449 517 36,000  Level FlightAware
12:34PM 35.9520 -97.2030 258° West 449 517 36,000  Level FlightAware
12:34PM 35.9370 -97.2850 257° West 449 517 36,000  Level FlightAware
12:35PM 35.9190 -97.3840 257° West 451 519 36,000  Level FlightAware
12:36PM 35.9040 -97.4660 257° West 452 520 36,000  Level FlightAware
12:36PM 35.8890 -97.5520 258° West 454 522 36,000  Level FlightAware
12:37PM 35.8710 -97.6460 257° West 455 524 36,000  Level FlightAware
12:37PM 35.8580 -97.7170 257° West 455 524 36,000  Level FlightAware
12:38PM 35.8500 -97.8160 264° West 454 522 36,000  Level FlightAware
12:38PM 35.8510 -97.9110 271° West 454 522 36,000  Level FlightAware
12:39PM 35.8510 -98.0010 270° West 454 522 36,000  Level FlightAware
12:39PM 35.8510 -98.0620 270° West 454 522 36,000  Level FlightAware
12:40PM 35.8510 -98.1580 270° West 454 522 36,000  Level FlightAware
12:41PM 35.8510 -98.2810 270° West 452 520 36,000  Level FlightAware
12:42PM 35.8510 -98.4020 270° West 452 520 36,000  Level FlightAware
12:42PM 35.8510 -98.4340 270° West 452 520 36,000  Level FlightAware
12:43PM 35.8510 -98.6260 270° West 453 521 36,000  Level FlightAware
12:44PM 35.8510 -98.7030 270° West 454 522 36,000  Level FlightAware
12:44PM 35.8500 -98.7980 269° West 455 524 36,000  Level FlightAware
12:45PM 35.8500 -98.8930 270° West 456 525 36,000  Level FlightAware
12:45PM 35.8490 -98.9830 269° West 457 526 36,000  Level FlightAware
12:46PM 35.8490 -99.0900 270° West 458 527 36,000  Level FlightAware
12:47PM 35.8480 -99.1860 269° West 460 529 36,000  Level FlightAware
12:47PM 35.8480 -99.2720 270° West 461 531 36,000  Level FlightAware
12:48PM 35.8470 -99.3630 269° West 462 532 36,000  Level FlightAware
12:48PM 35.8460 -99.4550 269° West 462 532 36,000  Level FlightAware
12:49PM 35.8450 -99.5500 269° West 461 531 36,000  Level FlightAware
12:50PM 35.8440 -99.6410 269° West 460 529 36,000  Level FlightAware
12:50PM 35.8430 -99.7390 269° West 460 529 36,000  Level FlightAware
12:51PM 35.8420 -99.8220 269° West 460 529 36,000  Level FlightAware
12:51PM 35.8410 -99.9200 269° West 460 529 36,000  Level FlightAware
12:52PM 35.8400 -100.0040 269° West 460 529 36,000  Level FlightAware
12:52PM 35.8380 -100.0830 268° West 460 529 36,000  Level FlightAware
12:53PM 35.8370 -100.1890 269° West 459 528 36,000  Level FlightAware
12:54PM 35.8350 -100.2760 268° West 459 528 36,000  Level FlightAware
12:54PM 35.8340 -100.3720 269° West 458 527 36,000  Level FlightAware
12:55PM 35.8320 -100.4600 268° West 457 526 36,000  Level FlightAware
12:55PM 35.8300 -100.5440 268° West 456 525 36,000  Level FlightAware
12:56PM 35.8280 -100.6610 269° West 456 525 36,000  Level FlightAware
12:57PM 35.8260 -100.7700 269° West 454 522 36,000  Level FlightAware
12:57PM 35.8240 -100.8510 268° West 454 522 36,000  Level FlightAware
12:58PM 35.8220 -100.9310 268° West 454 522 36,000  Level FlightAware
12:59PM 35.8200 -101.0360 269° West 452 520 36,000  Level FlightAware
12:59PM 35.8180 -101.1150 268° West 452 520 36,000  Level FlightAware
01:00PM 35.8150 -101.2220 268° West 452 520 36,000  Level FlightAware
01:01PM 35.8120 -101.3290 268° West 452 520 36,000  Level FlightAware
01:01PM 35.8090 -101.4130 268° West 452 520 36,000  Level FlightAware
01:02PM 35.8070 -101.4940 268° West 452 520 36,000  Level FlightAware
01:02PM 35.8050 -101.5460 267° West 452 520 36,000  Level FlightAware
01:04PM 35.8010 -101.7020 268° West 452 520 36,000  Level FlightAware
01:04PM 35.7990 -101.7810 268° West 452 520 36,000  Level FlightAware
01:05PM 35.7960 -101.8600 267° West 452 520 36,000  Level FlightAware
01:05PM 35.7940 -101.9380 268° West 452 520 36,000  Level FlightAware
01:06PM 35.7920 -102.0170 268° West 452 520 36,000  Level FlightAware
01:07PM 35.7900 -102.0960 268° West 452 520 36,000  Level FlightAware
01:07PM 35.7880 -102.1750 268° West 452 520 36,000  Level FlightAware
01:08PM 35.7850 -102.2540 267° West 452 520 36,000  Level FlightAware
01:09PM 35.7753 -102.5764 267° West 448 516 36,000  Level Albuquerque Center
01:10PM 35.7703 -102.7281 268° West 446 513 36,000  Level Albuquerque Center
01:11PM 35.7642 -102.8797 267° West 446 513 36,000  Level Albuquerque Center
01:12PM 35.7594 -103.0328 268° West 443 510 36,000  Level Albuquerque Center
01:13PM 35.7514 -103.2103 267° West 442 509 36,000  Level Albuquerque Center
01:14PM 35.7450 -103.3606 267° West 438 504 36,000  Level Albuquerque Center
01:15PM 35.7389 -103.5119 267° West 440 506 36,000  Level Albuquerque Center
01:16PM 35.7319 -103.6633 267° West 441 507 36,000  Level Albuquerque Center
01:17PM 35.7253 -103.8158 267° West 443 510 36,000  Level Albuquerque Center
01:18PM 35.7183 -103.9683 267° West 445 512 36,000  Level Albuquerque Center
01:19PM 35.7108 -104.1467 267° West 447 514 36,000  Level Albuquerque Center
01:20PM 35.7028 -104.2997 266° West 448 516 36,000  Level Albuquerque Center
01:21PM 35.6947 -104.4531 266° West 449 517 36,000  Level Albuquerque Center
01:22PM 35.6861 -104.6072 266° West 451 519 36,000  Level Albuquerque Center
01:23PM 35.6789 -104.7603 267° West 448 516 36,000  Level Albuquerque Center
01:29PM 35.5400 -105.5920 267° West 427 491 36,000  Level FlightAware
01:29PM 35.5290 -105.6580 258° West 426 490 36,000  Level FlightAware
01:30PM 35.5150 -105.7380 258° West 426 490 36,000  Level FlightAware
01:30PM 35.5020 -105.8110 258° West 426 490 36,000  Level FlightAware
01:31PM 35.4860 -105.9270 260° West 429 494 36,000  Level FlightAware
01:32PM 35.4730 -106.0070 259° West 431 496 36,000  Level FlightAware
01:32PM 35.4590 -106.0990 259° West 430 495 36,000  Level FlightAware
01:33PM 35.4480 -106.1760 260° West 428 493 36,000  Level FlightAware
01:33PM 35.4340 -106.2700 260° West 431 496 36,000  Level FlightAware
01:34PM 35.4220 -106.3490 259° West 432 497 36,000  Level FlightAware
01:35PM 35.4090 -106.4340 259° West 432 497 36,000  Level FlightAware
01:35PM 35.3950 -106.5210 259° West 432 497 36,000  Level FlightAware
01:36PM 35.3820 -106.6080 260° West 432 497 36,000  Level FlightAware
01:36PM 35.3710 -106.6850 260° West 433 498 36,000  Level FlightAware
01:37PM 35.3600 -106.7670 261° West 434 499 36,000  Level FlightAware
01:37PM 35.3480 -106.8530 260° West 435 501 36,000  Level FlightAware
01:38PM 35.3370 -106.9360 261° West 436 502 36,000  Level FlightAware
01:39PM 35.3250 -107.0250 261° West 437 503 36,000  Level FlightAware
01:39PM 35.3160 -107.1140 263° West 439 505 36,000  Level FlightAware
01:39PM 35.3130 -107.1440 263° West 439 505 36,000  Level FlightAware
01:41PM 35.2900 -107.3080 260° West 436 502 36,000  Level FlightAware
01:41PM 35.2770 -107.3890 259° West 435 501 36,000  Level FlightAware
01:42PM 35.2670 -107.4510 259° West 436 502 36,000  Level FlightAware
01:42PM 35.2570 -107.5060 257° West 436 502 36,000  Level FlightAware
01:43PM 35.2310 -107.6540 258° West 436 502 36,000  Level FlightAware
01:44PM 35.2140 -107.7530 258° West 436 502 36,000  Level FlightAware
01:45PM 35.2010 -107.8260 258° West 436 502 36,000  Level FlightAware
01:45PM 35.1840 -107.9270 258° West 436 502 36,000  Level FlightAware
01:46PM 35.1710 -108.0010 258° West 436 502 36,000  Level FlightAware
01:47PM 35.1580 -108.0770 258° West 436 502 36,000  Level FlightAware
01:48PM 35.1400 -108.1770 258° West 436 502 36,000  Level FlightAware
01:48PM 35.1270 -108.2530 258° West 436 502 36,000  Level FlightAware
01:49PM 35.1140 -108.3290 258° West 436 502 36,000  Level FlightAware
01:49PM 35.1010 -108.4050 258° West 436 502 36,000  Level FlightAware
01:50PM 35.0840 -108.5030 258° West 436 502 36,000  Level FlightAware
01:51PM 35.0710 -108.5770 258° West 436 502 36,000  Level FlightAware
01:51PM 35.1230 -108.8990 281° West 451 519 36,000  Level FlightAware
01:52PM 35.1080 -109.0230 262° West 450 518 36,000  Level FlightAware
01:53PM 35.0970 -109.1160 262° West 450 518 36,000  Level FlightAware
01:53PM 35.0870 -109.2010 262° West 449 517 36,000  Level FlightAware
01:54PM 35.0760 -109.2940 262° West 448 516 36,000  Level FlightAware
01:54PM 35.0660 -109.3720 261° West 446 513 36,000  Level FlightAware
01:55PM 35.0550 -109.4650 262° West 446 513 36,000  Level FlightAware
01:56PM 35.0440 -109.5550 262° West 445 512 36,000  Level FlightAware
01:56PM 35.0340 -109.6370 262° West 444 511 36,000  Level FlightAware
01:57PM 35.0220 -109.7340 261° West 445 512 36,000  Level FlightAware
01:58PM 35.0100 -109.8320 262° West 445 512 36,000  Level FlightAware
01:58PM 34.9980 -109.9220 261° West 445 512 36,000  Level FlightAware
01:59PM 34.9870 -110.0110 261° West 445 512 36,000  Level FlightAware
01:59PM 34.9760 -110.0930 261° West 445 512 36,000  Level FlightAware
02:00PM 34.9720 -110.1270 262° West 445 512 36,000  Level FlightAware
02:01PM 34.9560 -110.2500 261° West 445 512 36,000  Level FlightAware
02:01PM 34.9400 -110.3740 261° West 445 512 36,000  Level FlightAware
02:02PM 34.9280 -110.4690 261° West 444 511 36,000  Level FlightAware
02:02PM 34.9180 -110.5470 261° West 444 511 36,000  Level FlightAware
02:03PM 34.9080 -110.6220 261° West 444 511 36,000  Level FlightAware
02:04PM 34.8850 -110.7940 261° West 443 510 36,000  Level FlightAware
02:05PM 34.8720 -110.8890 261° West 443 510 36,000  Level FlightAware
02:05PM 34.8600 -110.9790 261° West 442 509 36,000  Level FlightAware
02:06PM 34.8490 -111.0590 261° West 442 509 36,000  Level FlightAware
02:06PM 34.8370 -111.1470 261° West 443 510 36,000  Level FlightAware
02:07PM 34.8250 -111.2350 261° West 441 507 36,000  Level FlightAware
02:08PM 34.8130 -111.3220 260° West 442 509 36,000  Level FlightAware
02:08PM 34.8020 -111.4050 261° West 441 507 36,000  Level FlightAware
02:09PM 34.7900 -111.4850 260° West 441 507 36,000  Level FlightAware
02:09PM 34.7780 -111.5750 261° West 441 507 36,000  Level FlightAware
02:10PM 34.7660 -111.6580 260° West 441 507 36,000  Level FlightAware
02:10PM 34.7560 -111.7290 260° West 440 506 36,000  Level FlightAware
02:11PM 34.7420 -111.8300 260° West 438 504 36,000  Level FlightAware
02:12PM 34.7300 -111.9130 260° West 438 504 36,000  Level FlightAware
02:12PM 34.7170 -112.0040 260° West 436 502 36,000  Level FlightAware
02:13PM 34.7040 -112.0900 260° West 434 499 36,000  Level FlightAware
02:13PM 34.6930 -112.1680 260° West 433 498 36,000  Level FlightAware
02:14PM 34.6800 -112.2590 260° West 433 498 36,000  Level FlightAware
02:15PM 34.6670 -112.3460 260° West 433 498 36,000  Level FlightAware
02:15PM 34.6560 -112.4210 260° West 433 498 36,000  Level FlightAware
02:16PM 34.6450 -112.4940 260° West 433 498 36,000  Level FlightAware
02:16PM 34.6280 -112.6080 260° West 433 498 36,000  Level FlightAware
02:17PM 34.6150 -112.6930 259° West 432 497 36,000  Level FlightAware
02:18PM 34.6040 -112.7700 260° West 431 496 36,000  Level FlightAware
02:18PM 34.5920 -112.8460 259° West 428 493 36,000  Level FlightAware
02:19PM 34.5780 -112.9430 260° West 428 493 36,000  Level FlightAware
02:19PM 34.5660 -113.0210 259° West 428 493 36,000  Level FlightAware
02:20PM 34.5560 -113.0820 259° West 428 493 36,000  Level FlightAware
02:21PM 34.5370 -113.2060 259° West 429 494 36,000  Level FlightAware
02:21PM 34.5230 -113.2970 259° West 431 496 36,000  Level FlightAware
02:22PM 34.5120 -113.3710 260° West 431 496 36,000  Level FlightAware
02:22PM 34.4970 -113.4620 259° West 431 496 36,000  Level FlightAware
02:23PM 34.4960 -113.4720 263° West 431 496 36,000  Level FlightAware
02:24PM 34.4720 -113.6220 259° West 429 494 36,000  Level FlightAware
02:24PM 34.4580 -113.7130 259° West 428 493 36,000  Level FlightAware
02:25PM 34.4460 -113.7870 259° West 428 493 36,000  Level FlightAware
02:25PM 34.4320 -113.8770 259° West 428 493 36,000  Level FlightAware
02:26PM 34.4200 -113.9520 259° West 428 493 36,000  Level FlightAware
02:27PM 34.4050 -114.0410 258° West 428 493 36,000  Level FlightAware
02:27PM 34.3910 -114.1270 259° West 430 495 36,000  Level FlightAware
02:28PM 34.3780 -114.2100 259° West 429 494 36,000  Level FlightAware
02:28PM 34.3640 -114.2910 258° West 429 494 36,000  Level FlightAware
02:29PM 34.3530 -114.3630 260° West 429 494 36,000  Level FlightAware
02:30PM 34.3380 -114.4500 258° West 428 493 36,000  Level FlightAware
02:30PM 34.3260 -114.5230 259° West 427 491 36,000  Level FlightAware
02:31PM 34.3070 -114.6370 259° West 426 490 36,000  Level FlightAware
02:32PM 34.2910 -114.7310 258° West 424 488 36,000  Level FlightAware
02:32PM 34.2780 -114.8030 258° West 424 488 36,000  Level FlightAware
02:33PM 34.2650 -114.8780 258° West 424 488 36,000  Level FlightAware
02:34PM 34.2520 -114.9510 258° West 424 488 36,000  Level FlightAware
02:34PM 34.2290 -115.1000 259° West 425 489 36,000  Level FlightAware
02:35PM 34.2130 -115.1920 258° West 427 491 36,000  Level FlightAware
02:35PM 34.2020 -115.2570 258° West 429 494 36,000  Level FlightAware
02:36PM 34.1890 -115.3340 258° West 431 496 36,000  Level FlightAware
02:36PM 34.1740 -115.4150 257° West 433 498 36,000  Level FlightAware
02:37PM 34.1600 -115.4980 259° West 434 499 36,000 -333 Level FlightAware
02:38PM 34.1450 -115.5850 258° West 433 498 35,600 -806 Descending FlightAware
02:38PM 34.1320 -115.6570 258° West 434 499 35,100 -971 Descending FlightAware
02:39PM 34.1160 -115.7490 258° West 437 503 34,500 -957 Descending FlightAware
02:39PM 34.1040 -115.8250 259° West 440 506 34,000 -878 Descending FlightAware
02:39PM 34.1010 -115.8440 259° West 439 505 33,900 -930 Descending FlightAware
02:40PM 34.0790 -115.9950 260° West 437 503 32,900 -1,011 Descending FlightAware
02:41PM 34.0670 -116.0750 260° West 434 499 32,300 -1,325 Descending FlightAware
02:42PM 34.0510 -116.1820 260° West 430 495 31,200 -1,500 Descending FlightAware
02:42PM 34.0500 -116.1890 260° West 428 493 31,100 -2,118 Descending FlightAware
02:43PM 34.0280 -116.3360 260° West 416 479 28,800 -2,069 Descending FlightAware
02:44PM 34.0100 -116.4550 260° West 407 468 27,100 -2,143 Descending FlightAware
02:44PM 34.0020 -116.5280 262° West 423 487 25,800 -2,294 Descending FlightAware
02:45PM 33.9950 -116.6150 264° West 432 497 24,500 -2,167 Descending FlightAware
02:45PM 33.9880 -116.7000 264° West 427 491 23,200 -2,250 Descending FlightAware
02:46PM 33.9810 -116.7850 264° West 420 483 21,800 -2,348 Descending FlightAware
02:47PM 33.9750 -116.8590 264° West 411 473 20,500 -2,294 Descending FlightAware
02:47PM 33.9690 -116.9390 265° West 402 463 19,200 -2,239 Descending FlightAware
02:48PM 33.9630 -117.0090 264° West 394 453 18,000 -1,853 Descending FlightAware
02:48PM 33.9560 -117.0870 264° West 378 435 17,100 -1,000 Descending FlightAware
02:49PM 33.9570 -117.1690 271° West 364 419 16,700 -1,923 Descending FlightAware
02:50PM 33.9700 -117.2480 281° West 381 438 14,600 -2,545 Descending FlightAware
02:50PM 33.9780 -117.3100 279° West 372 428 13,900 -1,714 Descending FlightAware
02:51PM 33.9870 -117.3910 278° West 369 425 12,600 -1,538 Descending FlightAware
02:51PM 33.9960 -117.4660 278° West 348 400 11,900 -1,043 Descending FlightAware
02:52PM 34.0020 -117.5240 277° West 337 388 11,400 -1,235 Descending FlightAware
02:53PM 34.0100 -117.5930 278° West 327 376 10,500 -1,083 Descending FlightAware
02:53PM 34.0160 -117.6510 277° West 302 348 10,100 -643 Descending FlightAware
02:54PM 34.0200 -117.6880 277° West 286 329 9,900 -857 Descending FlightAware
02:54PM 34.0190 -117.7310 268° West 275 316 9,400 -1,091 Descending FlightAware
02:54PM 34.0160 -117.7550 261° West 274 315 9,100 -1,167 Descending FlightAware
02:55PM 34.0140 -117.7840 265° West 279 321 8,700 -1,200 Descending FlightAware
02:55PM 34.0100 -117.8160 261° West 284 327 8,300 -1,200 Descending FlightAware
02:55PM 34.0070 -117.8470 263° West 282 325 7,900 -1,333 Descending FlightAware
02:56PM 34.0050 -117.8710 264° West 280 322 7,500 -1,500 Descending FlightAware
02:56PM 34.0040 -117.8850 265° West 279 321 7,300 -1,273 Descending FlightAware
02:56PM 34.0000 -117.9230 263° West 275 316 6,800 -1,125 Descending FlightAware
02:56PM 33.9970 -117.9580 264° West 268 308 6,400 -977 Descending FlightAware
02:57PM 33.9940 -117.9870 263° West 263 303 6,100 -1,000 Descending FlightAware
02:57PM 33.9910 -118.0110 261° West 259 298 5,800 -900 Descending FlightAware
02:57PM 33.9880 -118.0440 264° West 253 291 5,500 -818 Descending FlightAware
02:58PM 33.9850 -118.0730 263° West 249 287 5,200 -1,000 Descending FlightAware
02:58PM 33.9820 -118.1040 263° West 243 280 4,800 -900 Descending FlightAware
02:58PM 33.9800 -118.1260 264° West 232 267 4,600 -1,000 Descending FlightAware
02:59PM 33.9770 -118.1570 263° West 226 260 4,100 -1,286 Descending FlightAware
02:59PM 33.9740 -118.1800 261° West 222 255 3,700 -1,235 Descending FlightAware
02:59PM 33.9730 -118.1980 266° West 216 249 3,400 -891 Descending FlightAware
03:03PM 33.9560 -118.3660 263° West 149 171 700 -861 Descending FlightAware
03:03PM 33.9530 -118.3890 261° West 146 168 300 -414 Descending FlightAware
03:03PM 33.9510 -118.4080 263° West 146 168 300  Level FlightAware
03:11PM 33.9425 -118.4081 270° West  Level Estimated
03:12PM 33.9425 -118.4081 270° West  Level Estimated

Login

Don't have an account? Register now (free) for customized features, flight alerts, and more!